Latest Weather Observations for Cocos Island

IDW60801

Issued at 12:42 pm WST Wednesday 19 June 2019 (issued every 10 minutes, with the page automatically refreshed every 10 minutes)

About weather observations | Map of weather stations | Latest weather observations for WA | Other Formats
Station Details ID: 200284 Name: COCOS ISLAND AIRPORT Lat: -12.19 Lon: 96.83 Height: 3.0 m
Data from the previous 72 hours. | See also: Recent months at Cocos Island
Date/Time
WST
Temp
°C
App
Temp
°C
Dew
Point
°C
Rel
Hum
%
Delta-T
°C
Wind Press
QNH
hPa
Press
MSL
hPa
Rain since
9am
mm
Dir  Spd
km/h
Gust
km/h
Spd
kts
Gust
kts
19/12:30pm 29.0 29.9 23.4 72 3.8 E 24 28 13 15 1012.5 1012.5 0.0
19/12:00pm 29.1 30.4 24.0 74 3.5 E 24 30 13 16 1012.7 1012.7 0.0
19/11:30am 28.9 30.6 24.0 75 3.4 E 22 26 12 14 1012.7 1012.7 0.0
19/11:00am 28.5 29.7 23.9 76 3.2 E 24 30 13 16 1012.9 1012.9 1.4
19/10:30am 28.1 29.2 23.7 77 3.0 E 24 28 13 15 1012.9 1012.9 1.4
19/10:00am 28.0 29.7 24.0 79 2.8 E 22 26 12 14 1012.8 1012.8 1.4
19/09:30am 27.6 28.5 23.4 78 2.9 E 24 28 13 15 1012.7 1012.7 1.4
19/09:00am 27.3 29.4 23.7 81 2.5 E 19 22 10 12 1012.3 1012.3 1.4
19/08:30am 26.8 28.6 23.5 82 2.3 E 20 26 11 14 1012.2 1012.2 1.4
19/08:00am 26.6 27.6 23.5 83 2.1 E 24 28 13 15 1011.7 1011.7 -
19/07:30am 26.6 28.1 23.7 84 2.0 E 22 26 12 14 1011.6 1011.6 -
19/07:00am 26.6 28.0 23.5 83 2.1 E 22 26 12 14 1011.5 1011.5 -
19/06:30am 26.5 28.3 23.6 84 2.0 E 20 24 11 13 1011.4 1011.4 -
19/06:00am 26.5 28.4 23.8 85 1.9 E 20 22 11 12 1011.5 1011.5 -
19/05:30am 26.4 28.3 23.5 84 2.0 E 19 22 10 12 1011.5 1011.5 -
19/05:00am 26.5 28.2 23.4 83 2.1 E 20 24 11 13 1011.6 1011.6 0.0
19/04:30am 26.5 28.4 23.4 83 2.1 E 19 24 10 13 1011.7 1011.7 -
19/04:00am 26.4 28.5 23.7 85 1.9 E 19 22 10 12 1011.7 1011.7 -
19/03:30am 26.4 28.6 23.9 86 1.7 E 19 22 10 12 1011.8 1011.8 -
19/03:10am 26.5 27.9 23.6 84 2.0 E 22 26 12 14 1012.1 1012.1 -
19/03:00am 26.5 27.9 23.6 84 2.0 E 22 26 12 14 1012.2 1012.2 -
19/02:51am 26.5 27.9 23.6 84 2.0 E 22 26 12 14 1012.4 1012.4 -
19/02:30am 26.5 28.7 24.0 86 1.7 E 19 22 10 12 1012.6 1012.6 -
19/02:00am 26.6 28.6 23.9 85 1.9 E 20 24 11 13 1012.7 1012.7 -
19/01:30am 26.7 27.6 23.4 82 2.3 E 24 28 13 15 1012.8 1012.8 -
19/01:00am 26.9 28.0 23.6 82 2.3 E 24 28 13 15 1013.1 1013.1 -
19/12:30am 27.0 27.9 23.3 80 2.5 E 24 28 13 15 1013.4 1013.4 -
19/12:00am 27.1 28.0 23.3 80 2.6 E 24 28 13 15 1013.4 1013.4 -
 
Date/Time
WST
Temp
°C
App
Temp
°C
Dew
Point
°C
Rel
Hum
%
Delta-T
°C
Wind Press
QNH
hPa
Press
MSL
hPa
Rain since
9am
mm
Dir  Spd
km/h
Gust
km/h
Spd
kts
Gust
kts
18/11:30pm 27.2 28.7 23.7 81 2.4 E 22 28 12 15 1013.6 1013.6 -
18/11:00pm 27.4 28.7 24.1 82 2.3 E 24 28 13 15 1013.7 1013.7 0.0
18/10:30pm 27.5 28.4 23.9 81 2.5 E 26 30 14 16 1013.6 1013.6 -
18/10:00pm 27.5 27.6 23.3 78 2.9 E 28 32 15 17 1013.4 1013.4 -
18/09:30pm 27.6 28.0 23.8 80 2.6 E 28 33 15 18 1013.0 1013.0 -
18/09:00pm 27.6 28.0 23.8 80 2.6 E 28 32 15 17 1012.6 1012.6 -
18/08:30pm 27.7 28.2 23.9 80 2.6 E 28 32 15 17 1012.1 1012.1 -
18/08:00pm 27.8 28.3 24.0 80 2.6 E 28 32 15 17 1011.8 1011.8 -
18/07:30pm 27.8 28.4 24.2 81 2.5 E 28 32 15 17 1011.5 1011.5 -
18/07:00pm 27.9 28.5 24.1 80 2.6 E 28 32 15 17 1011.4 1011.4 -
18/06:30pm 28.3 29.1 24.5 80 2.6 E 28 33 15 18 1011.0 1011.0 -
18/06:00pm 28.6 29.2 24.2 77 3.1 ENE 28 32 15 17 1011.0 1011.0 -
18/05:30pm 28.8 29.3 23.9 75 3.4 E 28 32 15 17 1010.8 1010.8 -
18/05:00pm 28.9 29.7 24.5 77 3.1 ENE 28 35 15 19 1010.7 1010.7 -
18/04:30pm 29.1 29.7 24.2 75 3.4 E 28 32 15 17 1010.7 1010.7 1.4
18/04:00pm 29.1 30.1 24.7 77 3.1 ENE 28 32 15 17 1010.9 1010.9 0.1
18/03:30pm 29.3 29.9 24.8 77 3.1 ENE 30 33 16 18 1011.1 1011.1 1.4
18/03:00pm 27.7 32.9 25.7 89 1.4 ENE 9 15 5 8 1011.5 1011.5 1.4
18/02:30pm 26.0 30.5 24.6 92 1.0 ENE 9 11 5 6 1012.0 1012.0 1.4
18/02:00pm 26.9 28.6 24.7 88 1.5 E 24 39 13 21 1012.3 1012.3 0.2
18/01:59pm 26.9 28.6 24.7 88 1.5 E 24 39 13 21 1012.3 1012.3 0.2
18/01:30pm 29.5 33.4 24.8 76 3.3 E 13 17 7 9 1012.5 1012.5 0.2
18/01:00pm 28.0 31.2 24.4 81 2.5 E 15 17 8 9 1013.0 1013.0 0.2
18/12:30pm 27.5 31.1 24.4 83 2.1 E 13 20 7 11 1013.4 1013.4 0.2
18/12:00pm 27.6 30.1 24.4 83 2.2 ESE 19 22 10 12 1013.5 1013.5 0.0
18/11:30am 27.1 29.8 24.2 84 2.0 ESE 17 24 9 13 1013.8 1013.8 0.0
18/11:00am 26.7 30.0 23.8 84 2.0 E 13 17 7 9 1013.8 1013.8 1.6
18/10:30am 25.3 27.3 23.9 92 1.0 ENE 20 26 11 14 1013.9 1013.9 1.6
18/10:00am 25.3 23.8 23.5 90 1.2 ENE 37 44 20 24 1013.9 1013.9 1.6
18/09:43am 26.3 27.7 24.2 88 1.4 E 24 43 13 23 1013.8 1013.8 1.6
18/09:30am 26.6 29.7 24.1 86 1.7 ESE 15 22 8 12 1013.6 1013.6 1.6
18/09:00am 26.5 30.1 24.3 88 1.5 ESE 13 20 7 11 1013.3 1013.3 1.6
18/08:30am 26.1 29.7 24.3 90 1.2 E 13 22 7 12 1012.8 1012.8 1.6
18/08:02am 25.9 28.2 24.5 92 1.0 ESE 20 30 11 16 1012.6 1012.6 1.6
18/08:00am 25.9 27.9 24.5 92 1.0 ESE 22 30 12 16 1012.6 1012.6 1.6
18/07:43am 26.0 29.1 24.2 90 1.2 ESE 15 24 8 13 1012.6 1012.6 1.0
18/07:41am 26.1 28.8 24.1 89 1.4 ESE 17 28 9 15 1012.6 1012.6 0.6
18/07:30am 26.2 28.8 23.9 87 1.6 ESE 17 26 9 14 1012.6 1012.6 0.4
18/07:00am 26.7 28.5 24.2 86 1.7 ESE 22 28 12 15 1012.4 1012.4 0.4
18/06:38am 26.8 28.3 24.3 86 1.7 SE 24 28 13 15 1012.3 1012.3 0.4
18/06:30am 26.8 28.4 23.9 84 2.0 ESE 22 28 12 15 1012.3 1012.3 0.4
18/06:14am 26.6 27.8 23.9 85 1.9 SE 24 30 13 16 1012.3 1012.3 0.4
18/06:00am 26.4 27.8 24.2 88 1.5 SE 24 32 13 17 1012.4 1012.4 0.4
18/05:30am 26.4 27.5 23.7 85 1.9 SE 24 35 13 19 1012.4 1012.4 0.4
18/05:00am 26.4 27.6 23.9 86 1.7 ESE 24 32 13 17 1012.4 1012.4 0.4
18/04:30am 25.7 25.7 23.7 89 1.4 ESE 30 37 16 20 1012.7 1012.7 0.4
18/04:26am 25.6 26.1 24.0 91 1.1 ESE 28 37 15 20 1012.7 1012.7 0.4
18/04:09am 25.7 27.0 24.1 91 1.1 ESE 24 37 13 20 1012.7 1012.7 0.4
18/04:07am 25.8 27.4 23.8 89 1.4 SE 22 37 12 20 1012.7 1012.7 0.2
18/04:00am 25.9 27.5 23.9 89 1.4 SE 22 32 12 17 1012.6 1012.6 0.2
18/03:51am 25.9 26.4 23.9 89 1.4 SE 28 37 15 20 1012.7 1012.7 0.2
18/03:30am 26.6 26.6 23.1 81 2.4 SE 28 37 15 20 1012.7 1012.7 0.2
18/03:00am 26.7 28.1 23.6 83 2.1 SE 22 28 12 15 1012.8 1012.8 0.2
18/02:30am 26.7 27.5 23.2 81 2.4 SE 24 33 13 18 1012.9 1012.9 0.2
18/02:00am 26.5 27.8 23.4 83 2.1 SE 22 30 12 16 1013.4 1013.4 0.2
18/01:34am 26.5 27.7 23.2 82 2.2 SE 22 30 12 16 1013.7 1013.7 0.2
18/01:30am 26.5 27.7 23.2 82 2.2 SE 22 28 12 15 1013.7 1013.7 0.2
18/01:15am 26.7 27.5 23.2 81 2.4 SE 24 32 13 17 1013.9 1013.9 0.2
18/01:00am 26.7 27.0 23.0 80 2.5 SE 26 35 14 19 1013.8 1013.8 0.2
18/12:30am 26.7 27.1 22.5 78 2.8 SE 24 30 13 16 1013.9 1013.9 0.2
18/12:00am 26.8 27.0 22.8 79 2.7 SE 26 33 14 18 1014.0 1014.0 0.2
 
Date/Time
WST
Temp
°C
App
Temp
°C
Dew
Point
°C
Rel
Hum
%
Delta-T
°C
Wind Press
QNH
hPa
Press
MSL
hPa
Rain since
9am
mm
Dir  Spd
km/h
Gust
km/h
Spd
kts
Gust
kts
17/11:30pm 26.9 27.6 22.9 79 2.7 SE 24 35 13 19 1014.1 1014.1 0.2
17/11:00pm 27.0 27.2 22.8 78 2.8 SE 26 32 14 17 1014.3 1014.3 0.2
17/10:30pm 27.0 27.9 23.3 80 2.5 SE 24 30 13 16 1014.5 1014.5 0.2
17/10:00pm 27.2 27.4 22.8 77 3.0 SE 26 33 14 18 1014.5 1014.5 0.2
17/09:30pm 27.2 27.3 22.6 76 3.1 ESE 26 35 14 19 1014.1 1014.1 0.2
17/09:00pm 27.2 27.8 22.8 77 3.0 ESE 24 32 13 17 1013.9 1013.9 0.2
17/08:30pm 27.3 27.5 22.7 76 3.1 ESE 26 33 14 18 1013.6 1013.6 0.2
17/08:00pm 27.3 28.6 23.3 79 2.7 ESE 22 30 12 16 1013.3 1013.3 0.2
17/07:30pm 27.3 27.5 23.5 80 2.6 SE 28 33 15 18 1013.0 1013.0 0.2
17/07:00pm 27.4 28.0 23.4 79 2.7 ESE 26 35 14 19 1012.8 1012.8 0.2
17/06:30pm 27.6 28.4 23.2 77 3.0 ESE 24 33 13 18 1012.5 1012.5 0.2
17/06:00pm 27.8 28.2 23.2 76 3.1 ESE 26 35 14 19 1012.2 1012.2 0.2
17/05:30pm 28.1 28.7 22.8 73 3.6 ESE 24 35 13 19 1012.0 1012.0 0.2
17/05:00pm 28.3 28.9 23.4 75 3.4 ESE 26 37 14 20 1011.8 1011.8 0.2
17/04:30pm 28.3 28.9 22.8 72 3.7 ESE 24 39 13 21 1011.8 1011.8 0.2
17/04:00pm 28.4 29.3 23.3 74 3.5 ESE 24 37 13 20 1011.7 1011.7 0.2
17/03:30pm 28.3 28.6 23.0 73 3.6 ESE 26 37 14 20 1011.8 1011.8 0.2
17/03:00pm 29.2 31.2 24.5 76 3.3 ESE 22 33 12 18 1012.1 1012.1 0.2
17/02:30pm 29.0 30.3 24.1 75 3.4 ESE 24 39 13 21 1012.4 1012.4 0.2
17/02:00pm 28.9 31.1 24.2 76 3.3 ESE 20 33 11 18 1012.7 1012.7 0.2
17/01:30pm 27.5 27.9 23.7 80 2.6 SE 28 35 15 19 1013.3 1013.3 0.2
17/01:00pm 28.6 29.7 24.4 78 2.9 ESE 26 35 14 19 1013.6 1013.6 0.2
17/12:30pm 28.8 30.7 23.5 73 3.6 ESE 19 28 10 15 1014.0 1014.0 0.2
17/12:00pm 27.5 28.6 24.4 83 2.1 SE 26 32 14 17 1014.2 1014.2 0.2
17/11:30am 27.5 28.5 24.1 82 2.3 SE 26 33 14 18 1014.4 1014.4 0.0
17/11:00am 27.5 28.4 23.9 81 2.5 SE 26 32 14 17 1014.6 1014.6 0.6
17/10:30am 27.6 28.7 23.0 76 3.1 ESE 22 32 12 17 1014.5 1014.5 0.6
17/10:00am 27.4 28.7 23.4 79 2.7 ESE 22 37 12 20 1014.5 1014.5 0.6
17/09:30am 26.8 27.7 23.9 84 2.0 ESE 26 33 14 18 1014.4 1014.4 0.6
17/09:00am 26.4 26.9 23.9 86 1.7 ESE 28 35 15 19 1014.0 1014.0 0.6
17/08:30am 26.9 28.7 23.2 80 2.5 ESE 19 33 10 18 1013.7 1013.7 0.6
17/08:00am 26.6 28.3 23.1 81 2.4 ESE 19 32 10 17 1013.5 1013.5 0.6
17/07:30am 26.6 27.4 23.1 81 2.4 E 24 33 13 18 1013.4 1013.4 0.6
17/07:00am 26.7 28.2 23.0 80 2.5 E 20 32 11 17 1013.1 1013.1 0.6
17/06:30am 26.6 28.3 23.1 81 2.4 ESE 19 30 10 16 1013.0 1013.0 0.6
17/06:00am 25.8 26.8 23.5 87 1.6 E 24 30 13 16 1012.9 1012.9 0.6
17/05:30am 26.0 27.0 23.5 86 1.7 E 24 32 13 17 1012.8 1012.8 0.6
17/05:00am 26.0 28.2 23.3 85 1.8 ESE 17 28 9 15 1012.8 1012.8 0.6
17/04:30am 26.4 27.8 22.9 81 2.4 ESE 20 33 11 18 1012.8 1012.8 0.6
17/04:00am 26.2 27.5 22.7 81 2.4 ESE 20 33 11 18 1012.9 1012.9 0.6
17/03:30am 26.4 27.1 22.9 81 2.4 ESE 24 35 13 19 1013.1 1013.1 0.6
17/03:00am 26.3 26.7 23.2 83 2.1 ESE 26 37 14 20 1013.4 1013.4 0.6
17/02:30am 26.4 28.1 23.1 82 2.2 ESE 19 28 10 15 1013.7 1013.7 0.6
17/02:00am 26.2 27.0 22.5 80 2.5 ESE 22 32 12 17 1013.9 1013.9 0.6
17/01:30am 26.3 25.9 23.0 82 2.2 ESE 30 35 16 19 1014.0 1014.0 0.6
17/01:00am 26.2 26.2 23.7 86 1.7 SE 30 41 16 22 1014.4 1014.4 0.6
17/12:49am 25.8 25.0 23.3 86 1.7 SE 33 43 18 23 1014.6 1014.6 0.6
17/12:30am 26.5 28.2 23.4 83 2.1 ESE 20 32 11 17 1014.6 1014.6 0.6
17/12:00am 26.7 26.8 22.5 78 2.8 ESE 26 33 14 18 1014.7 1014.7 0.6
 
Date/Time
WST
Temp
°C
App
Temp
°C
Dew
Point
°C
Rel
Hum
%
Delta-T
°C
Wind Press
QNH
hPa
Press
MSL
hPa
Rain since
9am
mm
Dir  Spd
km/h
Gust
km/h
Spd
kts
Gust
kts
16/11:30pm 26.6 27.6 22.9 80 2.5 ESE 22 32 12 17 1014.8 1014.8 0.6
16/11:00pm 26.6 27.5 23.3 82 2.2 SE 24 33 13 18 1014.8 1014.8 0.6
16/10:30pm 26.8 26.5 23.3 81 2.4 SE 30 37 16 20 1014.7 1014.7 0.6
16/10:00pm 26.5 28.5 24.0 86 1.7 SE 20 32 11 17 1014.5 1014.5 0.6
16/09:34pm 26.3 27.9 23.8 86 1.7 SE 22 32 12 17 1014.5 1014.5 0.6
16/09:30pm 26.2 27.3 23.7 86 1.7 SE 24 32 13 17 1014.5 1014.5 0.6
16/09:22pm 25.6 25.7 23.3 87 1.6 SE 28 46 15 25 1014.5 1014.5 0.6
16/09:15pm 25.2 24.0 22.7 86 1.7 SE 33 46 18 25 1014.6 1014.6 0.6
16/09:00pm 27.3 27.9 23.5 80 2.6 SE 26 35 14 19 1014.3 1014.3 0.0
16/08:30pm 26.5 28.5 22.3 78 2.8 ESE 15 26 8 14 1014.0 1014.0 0.0
16/08:00pm 27.1 28.0 23.3 80 2.6 SE 24 30 13 16 1013.7 1013.7 0.0
16/07:30pm 27.1 28.8 23.1 79 2.7 ESE 19 26 10 14 1013.5 1013.5 0.0
16/07:00pm 26.5 28.6 23.8 85 1.9 ESE 19 32 10 17 1013.4 1013.4 0.0
16/06:30pm 27.2 29.1 23.4 80 2.6 ESE 19 26 10 14 1013.2 1013.2 0.0
16/06:00pm 27.4 29.8 23.6 80 2.6 ESE 17 28 9 15 1012.9 1012.9 0.0
16/05:30pm 28.1 30.0 23.7 77 3.0 ESE 20 26 11 14 1012.9 1012.9 0.0
16/05:00pm 28.2 30.1 23.8 77 3.0 ESE 20 28 11 15 1012.9 1012.9 0.0
16/04:30pm 28.2 29.7 23.1 74 3.5 ESE 20 28 11 15 1013.0 1013.0 0.0
16/04:00pm 28.5 29.8 23.4 74 3.5 ESE 22 32 12 17 1013.2 1013.2 0.0
16/03:30pm 27.6 28.5 23.4 78 2.9 ESE 24 32 13 17 1013.3 1013.3 0.0
16/03:00pm 28.6 29.3 23.7 75 3.4 E 26 37 14 20 1013.4 1013.4 0.0
16/02:30pm 28.2 28.6 23.1 74 3.5 E 26 37 14 20 1013.7 1013.7 0.0

Other formats

Comma delimited format used in spreadsheet applications
http://www.bom.gov.au/fwo/IDW60801/IDW60801.96996.axf

JavaScript Object Notation format (JSON) in row-major order
http://www.bom.gov.au/fwo/IDW60801/IDW60801.96996.json

Data quality

Most of these data are generated automatically and are frequently updated. Quality checks on data are not normally performed. It is possible for incorrect values to appear. Refer to information at About Latest Weather Observations and please check the disclaimer before using these data.